Time;durP1;ratioP1;P1;durP2;ratioP2;P2;SDS_P1;SDS_P2;PMS_P1;PMS_P2;Temp;Humidity;BMP_temperature;BMP_pressure;BME280_temperature;BME280_humidity;BME280_pressure;Samples;Min_cycle;Max_cycle;Signal;HPM_P1;HPM_P2
2021/12/15 00:02:19;;;;;;;95.65;40.13;;;;;;;;;;5056752;27;92221;-70
2021/12/15 00:04:46;;;;;;;100.40;41.22;;;;;;;;;;5056280;27;93283;-70
2021/12/15 00:07:13;;;;;;;103.90;41.47;;;;;;;;;;5056009;27;93918;-71
2021/12/15 00:09:39;;;;;;;102.82;41.67;;;;;;;;;;5056226;27;92365;-70
2021/12/15 00:12:06;;;;;;;103.50;40.75;;;;;;;;;;5056505;27;93739;-71
2021/12/15 00:14:33;;;;;;;98.88;40.75;;;;;;;;;;5038524;27;93582;-70
2021/12/15 00:17:00;;;;;;;98.32;40.55;;;;;;;;;;5056432;27;91630;-71
2021/12/15 00:19:27;;;;;;;98.47;42.10;;;;;;;;;;5059176;27;92668;-70
2021/12/15 00:21:54;;;;;;;93.47;41.42;;;;;;;;;;5056328;27;92076;-71
2021/12/15 00:24:21;;;;;;;103.75;43.13;;;;;;;;;;5054723;27;94916;-71
2021/12/15 00:26:48;;;;;;;91.65;41.90;;;;;;;;;;5055668;27;93567;-71
2021/12/15 00:29:15;;;;;;;93.78;41.38;;;;;;;;;;5037914;27;93103;-71
2021/12/15 00:31:44;;;;;;;101.30;43.47;;;;;;;;;;5055609;27;93693;-71
2021/12/15 00:34:10;;;;;;;97.65;42.90;;;;;;;;;;5037968;27;93064;-70
2021/12/15 00:36:37;;;;;;;96.00;43.78;;;;;;;;;;5038270;27;92445;-71
2021/12/15 00:39:04;;;;;;;93.35;45.10;;;;;;;;;;5037854;27;96049;-70
2021/12/15 00:41:31;;;;;;;99.63;44.30;;;;;;;;;;5059475;27;91940;-71
2021/12/15 00:43:58;;;;;;;94.63;44.05;;;;;;;;;;5056063;27;92752;-71
2021/12/15 00:46:24;;;;;;;102.82;45.03;;;;;;;;;;5055449;27;93516;-70
2021/12/15 00:48:51;;;;;;;98.93;45.90;;;;;;;;;;5036202;27;94914;-70
2021/12/15 00:51:18;;;;;;;109.43;46.72;;;;;;;;;;5055837;27;94936;-71
2021/12/15 00:53:44;;;;;;;99.15;45.85;;;;;;;;;;5037576;27;94708;-71
2021/12/15 00:56:11;;;;;;;95.65;45.05;;;;;;;;;;5055842;27;92319;-71
2021/12/15 00:58:37;;;;;;;95.65;45.97;;;;;;;;;;5056692;27;93660;-71
2021/12/15 01:01:03;;;;;;;100.03;44.80;;;;;;;;;;5040786;27;94675;-71
2021/12/15 01:03:31;;;;;;;93.75;45.47;;;;;;;;;;5062508;27;92130;-71
2021/12/15 01:06:03;;;;;;;101.10;45.00;;;;;;;;;;5059637;27;92961;-71
2021/12/15 01:08:31;;;;;;;97.15;46.38;;;;;;;;;;5059114;27;92261;-71
2021/12/15 01:21:53;;;;;;;93.30;45.25;;;;;;;;;;5040136;27;96898;-71
2021/12/15 01:24:20;;;;;;;96.10;47.72;;;;;;;;;;5040739;27;92975;-71
2021/12/15 01:26:47;;;;;;;97.70;46.55;;;;;;;;;;5043718;27;95056;-71
2021/12/15 01:29:14;;;;;;;107.82;47.97;;;;;;;;;;5040539;27;92283;-71
2021/12/15 01:31:40;;;;;;;94.05;46.90;;;;;;;;;;5041106;27;96090;-71
2021/12/15 01:34:07;;;;;;;102.32;47.30;;;;;;;;;;5040874;27;93993;-71
2021/12/15 01:36:34;;;;;;;102.30;49.20;;;;;;;;;;5040195;27;92611;-70
2021/12/15 01:39:02;;;;;;;99.50;48.70;;;;;;;;;;5038949;27;95412;-71
2021/12/15 01:41:28;;;;;;;99.78;49.28;;;;;;;;;;5040133;27;96220;-71
2021/12/15 01:47:02;;;;;;;101.30;48.30;;;;;;;;;;5058576;27;92293;-71
2021/12/15 01:49:42;;;;;;;94.40;45.95;;;;;;;;;;5069506;27;93664;-70
2021/12/15 01:52:09;;;;;;;102.55;47.40;;;;;;;;;;5060566;27;95329;-70
2021/12/15 01:54:37;;;;;;;98.15;49.75;;;;;;;;;;5078919;27;93903;-70
2021/12/15 01:57:04;;;;;;;103.55;47.55;;;;;;;;;;5060454;27;93756;-73
2021/12/15 01:59:31;;;;;;;103.45;48.47;;;;;;;;;;5060051;27;95664;-73
2021/12/15 02:01:58;;;;;;;100.00;48.95;;;;;;;;;;5078657;27;93146;-73
2021/12/15 02:04:25;;;;;;;107.78;48.72;;;;;;;;;;5058813;27;94825;-71
2021/12/15 02:06:51;;;;;;;93.55;47.55;;;;;;;;;;5078616;27;95790;-71
2021/12/15 02:12:07;;;;;;;102.18;46.75;;;;;;;;;;5062948;27;92343;-71
2021/12/15 02:14:34;;;;;;;98.75;47.97;;;;;;;;;;5078442;27;93637;-71
2021/12/15 02:17:00;;;;;;;100.25;48.83;;;;;;;;;;5078633;27;92336;-71
2021/12/15 02:19:27;;;;;;;103.03;48.13;;;;;;;;;;5060160;27;95955;-71
2021/12/15 02:21:54;;;;;;;95.13;48.72;;;;;;;;;;5060556;27;95128;-71
2021/12/15 02:24:21;;;;;;;105.38;48.88;;;;;;;;;;5059779;27;92271;-72
2021/12/15 02:26:52;;;;;;;109.47;48.22;;;;;;;;;;5059981;27;94504;-72
2021/12/15 02:29:21;;;;;;;96.47;47.97;;;;;;;;;;5058174;27;98283;-71
2021/12/15 02:39:38;;;;;;;109.97;50.78;;;;;;;;;;5059589;27;95818;-72
2021/12/15 02:42:05;;;;;;;97.03;46.80;;;;;;;;;;5059798;27;96606;-71
2021/12/15 02:44:31;;;;;;;102.32;47.03;;;;;;;;;;5077919;27;92362;-72
2021/12/15 02:46:57;;;;;;;102.78;48.05;;;;;;;;;;5078608;27;93453;-71
2021/12/15 02:49:27;;;;;;;99.55;46.95;;;;;;;;;;5077389;27;93734;-71
2021/12/15 02:51:55;;;;;;;103.50;48.72;;;;;;;;;;5077950;27;92339;-71
2021/12/15 02:54:22;;;;;;;99.60;48.72;;;;;;;;;;5079373;27;94705;-71
2021/12/15 02:56:52;;;;;;;104.50;48.83;;;;;;;;;;5077675;27;92282;-71
2021/12/15 02:59:24;;;;;;;98.07;49.13;;;;;;;;;;5077831;27;93086;-71
2021/12/15 03:04:49;;;;;;;98.93;47.63;;;;;;;;;;5055035;27;92421;-71
2021/12/15 03:07:29;;;;;;;106.07;50.10;;;;;;;;;;5077830;27;92545;-71
2021/12/15 03:15:35;;;;;;;105.45;49.15;;;;;;;;;;5077612;27;92759;-74
2021/12/15 03:18:06;;;;;;;104.43;48.60;;;;;;;;;;5080529;27;93649;-71
2021/12/15 03:20:35;;;;;;;99.53;49.53;;;;;;;;;;5075934;27;94658;-71
2021/12/15 03:23:01;;;;;;;109.25;49.22;;;;;;;;;;5076898;27;93914;-73
2021/12/15 03:25:30;;;;;;;103.82;48.45;;;;;;;;;;5077456;27;92170;-73
2021/12/15 03:34:36;;;;;;;103.72;47.83;;;;;;;;;;5077178;27;92288;-72
2021/12/15 03:36:24;;;;;;;97.57;46.20;;;;;;;;;;5066164;27;93532;-72
2021/12/15 03:38:51;;;;;;;99.90;48.13;;;;;;;;;;5077714;27;93517;-73
2021/12/15 03:41:18;;;;;;;99.45;47.20;;;;;;;;;;5080249;27;92212;-73
2021/12/15 03:43:45;;;;;;;98.85;46.88;;;;;;;;;;5076488;27;93809;-72
2021/12/15 03:46:13;;;;;;;96.45;45.80;;;;;;;;;;5075698;27;94683;-72
2021/12/15 03:48:42;;;;;;;98.95;46.63;;;;;;;;;;5076761;27;95727;-72
2021/12/15 03:51:12;;;;;;;100.93;46.10;;;;;;;;;;5076952;27;93562;-72
2021/12/15 03:53:39;;;;;;;101.53;46.50;;;;;;;;;;5077000;27;92532;-73
2021/12/15 03:56:08;;;;;;;102.13;47.42;;;;;;;;;;5076440;27;93739;-73
2021/12/15 03:58:34;;;;;;;97.90;47.15;;;;;;;;;;5076807;27;93628;-72
2021/12/15 04:01:05;;;;;;;96.18;47.70;;;;;;;;;;5076908;27;92308;-73
2021/12/15 04:03:35;;;;;;;104.45;48.92;;;;;;;;;;5080150;27;93599;-72
2021/12/15 04:06:03;;;;;;;107.78;47.67;;;;;;;;;;5058472;27;92273;-73
2021/12/15 04:08:29;;;;;;;98.20;46.90;;;;;;;;;;5076668;27;93578;-73
2021/12/15 04:10:56;;;;;;;102.18;47.17;;;;;;;;;;5074449;27;96241;-72
2021/12/15 04:13:23;;;;;;;105.93;48.70;;;;;;;;;;5077209;27;92375;-73
2021/12/15 04:16:04;;;;;;;101.82;46.88;;;;;;;;;;5076846;27;93054;-72
2021/12/15 04:18:31;;;;;;;108.87;47.57;;;;;;;;;;5076571;27;93660;-72
2021/12/15 04:20:58;;;;;;;105.07;46.53;;;;;;;;;;5076680;27;93513;-73
2021/12/15 04:23:25;;;;;;;103.22;45.80;;;;;;;;;;5079390;27;93560;-72
2021/12/15 04:25:54;;;;;;;106.05;46.78;;;;;;;;;;5076744;27;92250;-73
2021/12/15 04:28:22;;;;;;;108.95;49.10;;;;;;;;;;5077089;27;93681;-73
2021/12/15 04:30:51;;;;;;;103.95;47.22;;;;;;;;;;5076582;27;93668;-73
2021/12/15 04:33:24;;;;;;;94.78;44.63;;;;;;;;;;5077127;27;92353;-73
2021/12/15 04:35:53;;;;;;;102.72;48.17;;;;;;;;;;5078201;27;94759;-73
2021/12/15 04:38:20;;;;;;;106.60;46.38;;;;;;;;;;5079799;27;93065;-73
2021/12/15 04:40:47;;;;;;;104.68;47.45;;;;;;;;;;5079939;27;92797;-72
2021/12/15 04:43:13;;;;;;;102.32;46.92;;;;;;;;;;5080151;27;93265;-73
2021/12/15 04:45:40;;;;;;;97.97;46.22;;;;;;;;;;5083033;27;93875;-73
2021/12/15 04:48:07;;;;;;;106.80;48.30;;;;;;;;;;5079903;27;93481;-73
2021/12/15 04:50:33;;;;;;;105.18;46.20;;;;;;;;;;5079667;27;93464;-73
2021/12/15 04:53:03;;;;;;;112.78;47.90;;;;;;;;;;5080307;27;91687;-73
2021/12/15 04:55:30;;;;;;;101.57;46.47;;;;;;;;;;5079278;27;92576;-73
2021/12/15 04:57:57;;;;;;;110.95;48.20;;;;;;;;;;5079689;27;93624;-73
2021/12/15 05:00:26;;;;;;;114.22;47.60;;;;;;;;;;5078044;27;94770;-73
2021/12/15 05:02:53;;;;;;;100.60;45.85;;;;;;;;;;5079898;27;95849;-73
2021/12/15 05:05:21;;;;;;;109.55;47.55;;;;;;;;;;5079756;27;94077;-73
2021/12/15 05:07:49;;;;;;;101.53;44.17;;;;;;;;;;5082582;27;92282;-73
2021/12/15 05:10:16;;;;;;;99.13;46.20;;;;;;;;;;5079383;27;93740;-73
2021/12/15 05:12:43;;;;;;;96.97;44.83;;;;;;;;;;5079288;27;92396;-73
2021/12/15 05:15:09;;;;;;;115.28;46.83;;;;;;;;;;5080098;27;92833;-73
2021/12/15 05:17:36;;;;;;;106.05;47.40;;;;;;;;;;5079175;27;92905;-73
2021/12/15 05:20:05;;;;;;;104.47;46.63;;;;;;;;;;5079598;27;93310;-72
2021/12/15 05:22:32;;;;;;;105.30;46.33;;;;;;;;;;5044136;27;94559;-73
2021/12/15 05:24:58;;;;;;;105.07;44.70;;;;;;;;;;5077565;27;96184;-74
2021/12/15 05:27:25;;;;;;;112.38;46.95;;;;;;;;;;5079157;27;92333;-73
2021/12/15 05:29:51;;;;;;;105.05;46.60;;;;;;;;;;5082535;27;93385;-72
2021/12/15 05:32:19;;;;;;;104.25;46.92;;;;;;;;;;5079123;27;92381;-73
2021/12/15 05:34:46;;;;;;;117.10;48.25;;;;;;;;;;5079224;27;93530;-73
2021/12/15 05:37:13;;;;;;;111.47;47.15;;;;;;;;;;5079120;27;93636;-74
2021/12/15 05:39:40;;;;;;;96.68;44.20;;;;;;;;;;5078431;27;92361;-73
2021/12/15 05:42:06;;;;;;;108.68;45.47;;;;;;;;;;5079627;27;93510;-74
2021/12/15 05:44:33;;;;;;;105.47;46.33;;;;;;;;;;5077919;27;93768;-73
2021/12/15 05:47:00;;;;;;;114.38;46.30;;;;;;;;;;5078803;27;92372;-73
2021/12/15 05:49:27;;;;;;;108.18;46.80;;;;;;;;;;5077581;27;95083;-73
2021/12/15 05:51:53;;;;;;;113.78;45.90;;;;;;;;;;5081251;27;93921;-73
2021/12/15 05:54:20;;;;;;;113.72;46.53;;;;;;;;;;5078855;27;93659;-72
2021/12/15 05:56:46;;;;;;;110.95;45.60;;;;;;;;;;5078541;27;93570;-73
2021/12/15 05:59:13;;;;;;;115.22;47.22;;;;;;;;;;5078658;27;92383;-73
2021/12/15 06:01:39;;;;;;;121.03;47.47;;;;;;;;;;5060105;27;93693;-73
2021/12/15 06:04:07;;;;;;;117.03;47.83;;;;;;;;;;5078359;27;93048;-73
2021/12/15 06:06:34;;;;;;;122.28;47.97;;;;;;;;;;5079217;27;91419;-73
2021/12/15 06:09:02;;;;;;;120.95;46.42;;;;;;;;;;5078840;27;92828;-73
2021/12/15 06:11:28;;;;;;;111.40;46.53;;;;;;;;;;5078262;27;94203;-73
2021/12/15 06:13:54;;;;;;;124.07;46.40;;;;;;;;;;5080128;27;94799;-73
2021/12/15 06:16:22;;;;;;;114.68;45.03;;;;;;;;;;5060764;27;93808;-72
2021/12/15 06:18:49;;;;;;;114.88;46.40;;;;;;;;;;5077934;27;92260;-73
2021/12/15 06:21:17;;;;;;;123.20;48.55;;;;;;;;;;5078361;27;93478;-73
2021/12/15 06:23:44;;;;;;;128.82;48.17;;;;;;;;;;5078141;27;93178;-73
2021/12/15 06:26:10;;;;;;;116.70;45.25;;;;;;;;;;5078462;27;92276;-73
2021/12/15 06:28:37;;;;;;;133.27;48.15;;;;;;;;;;5078314;27;92991;-73
2021/12/15 06:31:07;;;;;;;114.65;45.15;;;;;;;;;;5078822;27;92842;-73
2021/12/15 06:33:34;;;;;;;121.80;46.63;;;;;;;;;;5080854;27;92332;-73
2021/12/15 06:36:03;;;;;;;116.93;44.88;;;;;;;;;;5078212;27;93995;-74
2021/12/15 06:38:34;;;;;;;113.93;45.42;;;;;;;;;;5076760;27;94547;-73
2021/12/15 06:41:01;;;;;;;116.28;46.63;;;;;;;;;;5078166;27;96237;-72
2021/12/15 06:43:27;;;;;;;129.43;47.80;;;;;;;;;;5077942;27;93651;-73
2021/12/15 06:46:12;;;;;;;122.93;48.35;;;;;;;;;;5077463;27;92531;-73
2021/12/15 06:59:38;;;;;;;127.45;45.25;;;;;;;;;;5077846;27;92376;-73
2021/12/15 07:02:05;;;;;;;122.53;44.05;;;;;;;;;;5078137;27;92811;-73
2021/12/15 07:04:31;;;;;;;122.53;45.15;;;;;;;;;;5076069;27;95801;-73
2021/12/15 07:06:58;;;;;;;117.93;43.60;;;;;;;;;;5077372;27;92363;-73
2021/12/15 07:09:25;;;;;;;134.38;47.42;;;;;;;;;;5077651;27;93490;-74
2021/12/15 07:11:52;;;;;;;133.18;46.40;;;;;;;;;;5077500;27;93757;-73
2021/12/15 07:14:19;;;;;;;143.63;47.72;;;;;;;;;;5077535;27;92381;-74
2021/12/15 07:16:47;;;;;;;136.70;46.85;;;;;;;;;;5077517;27;93257;-73
2021/12/15 07:21:53;;;;;;;136.02;46.03;;;;;;;;;;5078039;27;93808;-72
2021/12/15 07:24:21;;;;;;;142.93;47.22;;;;;;;;;;5077479;27;93889;-71
2021/12/15 07:26:53;;;;;;;136.88;46.10;;;;;;;;;;5077693;27;92398;-74
2021/12/15 07:29:19;;;;;;;136.60;46.83;;;;;;;;;;5075993;27;94677;-74
2021/12/15 07:31:46;;;;;;;145.05;46.63;;;;;;;;;;5076593;27;94082;-74
2021/12/15 07:34:12;;;;;;;117.50;45.00;;;;;;;;;;5077482;27;92198;-74
2021/12/15 07:36:38;;;;;;;117.93;43.88;;;;;;;;;;5077261;27;93032;-73
2021/12/15 07:39:09;;;;;;;134.65;44.33;;;;;;;;;;5077114;27;93181;-76
2021/12/15 07:41:42;;;;;;;123.40;44.30;;;;;;;;;;5062530;27;92392;-72
2021/12/15 07:44:08;;;;;;;127.78;44.70;;;;;;;;;;5077036;27;93502;-72
2021/12/15 07:46:51;;;;;;;119.68;44.22;;;;;;;;;;5077439;27;91488;-73
2021/12/15 07:49:18;;;;;;;126.88;44.75;;;;;;;;;;5077085;27;93085;-73
2021/12/15 07:51:45;;;;;;;126.95;44.03;;;;;;;;;;5076982;27;93334;-73
2021/12/15 07:54:13;;;;;;;129.85;44.58;;;;;;;;;;5075235;27;94690;-72
2021/12/15 07:56:39;;;;;;;127.82;44.67;;;;;;;;;;5076873;27;95701;-71
2021/12/15 07:59:06;;;;;;;125.75;44.40;;;;;;;;;;5076350;27;93588;-73
2021/12/15 08:01:33;;;;;;;124.60;43.55;;;;;;;;;;5076957;27;92227;-73
2021/12/15 08:03:59;;;;;;;117.40;42.88;;;;;;;;;;5079744;27;93522;-73
2021/12/15 08:06:26;;;;;;;124.57;43.90;;;;;;;;;;5076800;27;92533;-73
2021/12/15 08:08:54;;;;;;;121.10;43.55;;;;;;;;;;5078052;27;93735;-72
2021/12/15 08:11:20;;;;;;;130.77;44.97;;;;;;;;;;5080345;27;93272;-73
2021/12/15 08:13:47;;;;;;;123.25;43.58;;;;;;;;;;5080221;27;92327;-72
2021/12/15 08:16:14;;;;;;;127.25;43.80;;;;;;;;;;5080266;27;93578;-74
2021/12/15 08:18:41;;;;;;;134.75;43.20;;;;;;;;;;5078520;27;95973;-74
2021/12/15 08:21:08;;;;;;;124.22;41.95;;;;;;;;;;5080415;27;92398;-73
2021/12/15 08:23:35;;;;;;;145.18;46.15;;;;;;;;;;5080174;27;93446;-74
2021/12/15 08:26:03;;;;;;;127.90;43.95;;;;;;;;;;5082788;27;93687;-76
2021/12/15 08:28:29;;;;;;;110.60;42.42;;;;;;;;;;5080316;27;93707;-77
2021/12/15 08:30:56;;;;;;;110.82;41.38;;;;;;;;;;5079984;27;93805;-74
2021/12/15 08:33:23;;;;;;;110.45;43.42;;;;;;;;;;5079779;27;92424;-74
2021/12/15 08:35:53;;;;;;;102.03;40.05;;;;;;;;;;5062315;27;94645;-74
2021/12/15 08:38:20;;;;;;;104.68;40.13;;;;;;;;;;5079912;27;93707;-72
2021/12/15 08:40:47;;;;;;;102.95;40.30;;;;;;;;;;5079795;27;92415;-73
2021/12/15 08:43:14;;;;;;;113.13;41.72;;;;;;;;;;5078443;27;94525;-75
2021/12/15 08:45:42;;;;;;;105.85;42.15;;;;;;;;;;5083375;27;93471;-73
2021/12/15 08:48:08;;;;;;;107.22;40.95;;;;;;;;;;5080240;27;93730;-74
2021/12/15 08:50:36;;;;;;;103.15;41.20;;;;;;;;;;5079754;27;93230;-73
2021/12/15 08:53:05;;;;;;;107.88;40.15;;;;;;;;;;5079480;27;92328;-72
2021/12/15 08:55:32;;;;;;;102.18;41.47;;;;;;;;;;5080087;27;92983;-73
2021/12/15 08:58:00;;;;;;;98.57;40.63;;;;;;;;;;5079679;27;93441;-74
2021/12/15 09:00:27;;;;;;;109.32;39.78;;;;;;;;;;5080333;27;91594;-74
2021/12/15 09:02:55;;;;;;;117.15;43.20;;;;;;;;;;5079402;27;92664;-74
2021/12/15 09:05:22;;;;;;;108.68;41.38;;;;;;;;;;5079727;27;92196;-73
2021/12/15 09:07:50;;;;;;;102.57;40.28;;;;;;;;;;5080749;27;94701;-74
2021/12/15 09:10:18;;;;;;;108.57;39.58;;;;;;;;;;5079201;27;93630;-73
2021/12/15 09:12:44;;;;;;;106.57;40.55;;;;;;;;;;5079634;27;92316;-73
2021/12/15 09:15:11;;;;;;;107.10;39.13;;;;;;;;;;5079571;27;93824;-74
2021/12/15 09:17:38;;;;;;;106.55;39.72;;;;;;;;;;5079365;27;93505;-72
2021/12/15 09:20:06;;;;;;;106.78;39.55;;;;;;;;;;5078119;27;93013;-73
2021/12/15 09:22:32;;;;;;;108.80;41.60;;;;;;;;;;5097100;27;93475;-73
2021/12/15 09:24:59;;;;;;;112.85;40.17;;;;;;;;;;5100156;27;92206;-72
2021/12/15 09:27:25;;;;;;;97.40;38.55;;;;;;;;;;5100065;27;93008;-73
2021/12/15 09:29:51;;;;;;;108.15;40.10;;;;;;;;;;5102800;27;93346;-74
2021/12/15 09:32:19;;;;;;;99.70;39.72;;;;;;;;;;5098320;27;94655;-73
2021/12/15 09:34:45;;;;;;;106.28;39.58;;;;;;;;;;5098901;27;95357;-73
2021/12/15 09:37:12;;;;;;;100.25;38.88;;;;;;;;;;5099774;27;92952;-73
2021/12/15 09:39:38;;;;;;;98.40;37.97;;;;;;;;;;5099772;27;92547;-74
2021/12/15 09:42:23;;;;;;;87.82;36.25;;;;;;;;;;5098783;27;93114;-73
2021/12/15 09:44:52;;;;;;;88.38;36.38;;;;;;;;;;5099570;27;93152;-73
2021/12/15 09:47:41;;;;;;;93.35;36.95;;;;;;;;;;5099547;27;92379;-74
2021/12/15 10:06:45;;;;;;;84.57;36.53;;;;;;;;;;5099151;27;94098;-74
2021/12/15 10:12:24;;;;;;;87.05;36.65;;;;;;;;;;5099443;27;93488;-74
2021/12/15 10:18:00;;;;;;;80.10;35.75;;;;;;;;;;5102112;27;91647;-73
2021/12/15 10:20:28;;;;;;;74.20;34.22;;;;;;;;;;5098801;27;93085;-73
2021/12/15 10:22:59;;;;;;;72.03;33.72;;;;;;;;;;5099023;27;92177;-74
2021/12/15 10:25:26;;;;;;;;;;;;;;;;;;5097752;27;94629;-73
2021/12/15 10:28:02;;;;;;;66.05;30.63;;;;;;;;;;5098769;27;121456;-72
2021/12/15 10:30:48;;;;;;;57.28;30.38;;;;;;;;;;5098673;27;92239;-73
2021/12/15 10:33:34;;;;;;;63.78;32.15;;;;;;;;;;5098625;27;92875;-74
2021/12/15 10:36:03;;;;;;;62.67;31.90;;;;;;;;;;5098401;27;93587;-75
2021/12/15 10:38:39;;;;;;;60.55;31.17;;;;;;;;;;5098394;27;92308;-74
2021/12/15 10:41:24;;;;;;;66.85;31.45;;;;;;;;;;5101683;27;92676;-74
2021/12/15 10:43:58;;;;;;;61.50;29.85;;;;;;;;;;5080649;27;91620;-73
2021/12/15 10:46:38;;;;;;;60.50;30.52;;;;;;;;;;5098773;27;92797;-74
2021/12/15 10:49:07;;;;;;;61.42;30.95;;;;;;;;;;5098189;27;93386;-74
2021/12/15 10:51:40;;;;;;;57.03;29.83;;;;;;;;;;5097011;27;94623;-74
2021/12/15 10:54:17;;;;;;;55.15;29.70;;;;;;;;;;5098239;27;95935;-73
2021/12/15 10:56:51;;;;;;;54.35;28.10;;;;;;;;;;5098331;27;93402;-73
2021/12/15 10:59:20;;;;;;;53.75;29.05;;;;;;;;;;5098171;27;92329;-73
2021/12/15 11:01:48;;;;;;;52.60;28.38;;;;;;;;;;5101501;27;93285;-73
2021/12/15 11:04:21;;;;;;;48.53;28.50;;;;;;;;;;5098177;27;92244;-72
2021/12/15 11:07:01;;;;;;;49.63;27.67;;;;;;;;;;5098662;27;92801;-72
2021/12/15 11:09:31;;;;;;;45.03;26.10;;;;;;;;;;5098104;27;93049;-74
2021/12/15 11:12:05;;;;;;;51.50;26.67;;;;;;;;;;5098011;27;92250;-75
2021/12/15 11:14:38;;;;;;;41.58;26.20;;;;;;;;;;5098298;27;93022;-74
2021/12/15 11:17:07;;;;;;;43.40;25.25;;;;;;;;;;5096449;27;96052;-74
2021/12/15 11:19:54;;;;;;;42.90;23.88;;;;;;;;;;5098132;27;92293;-75
2021/12/15 11:22:29;;;;;;;38.22;24.10;;;;;;;;;;5097495;27;93681;-75
2021/12/15 11:24:56;;;;;;;37.42;22.83;;;;;;;;;;5101199;27;93447;-74
2021/12/15 11:27:22;;;;;;;39.55;23.35;;;;;;;;;;5098208;27;93538;-73
2021/12/15 11:29:49;;;;;;;41.60;23.27;;;;;;;;;;5097959;27;93632;-74
2021/12/15 11:32:54;;;;;;;35.38;22.85;;;;;;;;;;5097672;27;92293;-74
2021/12/15 11:35:31;;;;;;;37.35;22.65;;;;;;;;;;4994639;28;93829;-74
2021/12/15 11:37:57;;;;;;;;;;;;;;;;;;4994856;28;93801;-73
2021/12/15 11:40:26;;;;;;;36.22;22.67;;;;;;;;;;5050116;27;119561;-77
2021/12/15 11:42:52;;;;;;;34.95;21.77;;;;;;;;;;5095081;27;94798;-73
2021/12/15 11:45:19;;;;;;;31.92;20.70;;;;;;;;;;5097059;27;93608;-76
2021/12/15 11:47:45;;;;;;;29.90;20.52;;;;;;;;;;5082869;27;92427;-74
2021/12/15 11:50:37;;;;;;;32.33;19.90;;;;;;;;;;5098381;27;93645;-76
2021/12/15 11:53:21;;;;;;;34.10;20.33;;;;;;;;;;5091941;27;92512;-72
2021/12/15 11:55:48;;;;;;;31.73;20.40;;;;;;;;;;5096918;27;92855;-74
2021/12/15 11:58:14;;;;;;;31.45;19.45;;;;;;;;;;5097509;27;93380;-73
2021/12/15 12:00:41;;;;;;;33.55;19.10;;;;;;;;;;5098554;27;91703;-76
2021/12/15 12:03:12;;;;;;;31.83;19.65;;;;;;;;;;5097416;27;92570;-75
2021/12/15 12:05:38;;;;;;;34.70;18.30;;;;;;;;;;5097177;27;94427;-76
2021/12/15 12:08:07;;;;;;;31.38;18.27;;;;;;;;;;5095755;27;94699;-74
2021/12/15 12:10:43;;;;;;;31.13;17.58;;;;;;;;;;5100233;27;95733;-73
2021/12/15 12:13:14;;;;;;;27.55;17.70;;;;;;;;;;5097385;27;92100;-73
2021/12/15 12:15:41;;;;;;;32.67;18.13;;;;;;;;;;5097346;27;93467;-73
2021/12/15 12:18:09;;;;;;;29.20;18.10;;;;;;;;;;5097336;27;93779;-73
2021/12/15 12:20:38;;;;;;;28.90;17.42;;;;;;;;;;5097027;27;92602;-74
2021/12/15 12:23:06;;;;;;;25.02;16.50;;;;;;;;;;5096988;27;93421;-74
2021/12/15 12:25:36;;;;;;;23.30;15.80;;;;;;;;;;5086718;27;93001;-73
2021/12/15 12:28:04;;;;;;;26.45;15.15;;;;;;;;;;5058015;27;94552;-74
2021/12/15 12:30:36;;;;;;;24.70;14.40;;;;;;;;;;5056154;27;93475;-76
2021/12/15 12:33:08;;;;;;;21.55;14.15;;;;;;;;;;5022731;27;98782;-74
2021/12/15 12:35:35;;;;;;;22.98;13.90;;;;;;;;;;5056190;27;95276;-74
2021/12/15 12:38:09;;;;;;;19.70;12.32;;;;;;;;;;5038409;27;93793;-75
2021/12/15 12:40:56;;;;;;;18.17;11.77;;;;;;;;;;5056009;27;92408;-73
2021/12/15 12:43:24;;;;;;;21.30;11.27;;;;;;;;;;5041648;27;93484;-74
2021/12/15 12:45:57;;;;;;;17.63;11.50;;;;;;;;;;5055249;27;93609;-74
2021/12/15 12:49:00;;;;;;;20.55;11.77;;;;;;;;;;5056017;27;93061;-73
2021/12/15 13:00:26;;;;;;;13.02;9.45;;;;;;;;;;5050605;27;96117;-74
2021/12/15 13:03:25;;;;;;;15.82;9.93;;;;;;;;;;5059947;27;92347;-73
2021/12/15 13:05:56;;;;;;;19.42;9.75;;;;;;;;;;5015212;27;92597;-74
2021/12/15 13:08:22;;;;;;;19.83;9.52;;;;;;;;;;5059794;27;93638;-74
2021/12/15 13:11:04;;;;;;;17.73;9.65;;;;;;;;;;5059107;27;92662;-75
2021/12/15 13:13:33;;;;;;;18.40;10.27;;;;;;;;;;5060247;27;93310;-74
2021/12/15 13:16:08;;;;;;;17.08;10.43;;;;;;;;;;5041283;27;93658;-74
2021/12/15 13:18:46;;;;;;;14.07;9.93;;;;;;;;;;5062962;27;91691;-78
2021/12/15 13:21:15;;;;;;;15.98;10.10;;;;;;;;;;5058976;27;93544;-73
2021/12/15 13:23:50;;;;;;;15.82;9.30;;;;;;;;;;5058737;27;92377;-74
2021/12/15 13:29:22;;;;;;;16.02;10.15;;;;;;;;;;5058682;27;93620;-73
2021/12/15 13:31:54;;;;;;;20.83;10.32;;;;;;;;;;5058396;27;92358;-74
2021/12/15 13:34:34;;;;;;;18.52;11.10;;;;;;;;;;5058939;27;92789;-75
2021/12/15 13:37:01;;;;;;;20.55;11.25;;;;;;;;;;5059338;27;92877;-73
2021/12/15 13:39:41;;;;;;;16.55;11.35;;;;;;;;;;5058596;27;92410;-75
2021/12/15 13:42:13;;;;;;;27.00;13.10;;;;;;;;;;5061227;27;93251;-74
2021/12/15 13:44:40;;;;;;;21.38;11.95;;;;;;;;;;5057333;27;91963;-75
2021/12/15 13:47:09;;;;;;;24.80;13.13;;;;;;;;;;5057479;27;92851;-74
2021/12/15 13:49:51;;;;;;;20.10;12.63;;;;;;;;;;5061250;27;93696;-75
2021/12/15 13:52:29;;;;;;;20.67;13.05;;;;;;;;;;5077276;27;94637;-74
2021/12/15 13:54:58;;;;;;;19.92;13.27;;;;;;;;;;5048650;27;96940;-74
2021/12/15 13:57:33;;;;;;;22.23;13.30;;;;;;;;;;5058134;27;93940;-74
2021/12/15 14:00:03;;;;;;;20.25;13.52;;;;;;;;;;5058512;27;92226;-73
2021/12/15 14:02:39;;;;;;;22.05;15.27;;;;;;;;;;5059957;27;93177;-74
2021/12/15 14:05:15;;;;;;;26.52;13.63;;;;;;;;;;5090509;27;93559;-74
2021/12/15 14:07:46;;;;;;;25.55;14.60;;;;;;;;;;5098363;27;93524;-73
2021/12/15 14:10:12;;;;;;;22.02;14.32;;;;;;;;;;5099358;27;92698;-73
2021/12/15 14:12:45;;;;;;;20.38;14.07;;;;;;;;;;5099218;27;92483;-73
2021/12/15 14:15:34;;;;;;;20.15;13.43;;;;;;;;;;5099083;27;93244;-74
2021/12/15 14:18:03;;;;;;;22.05;14.63;;;;;;;;;;5097431;27;95953;-73
2021/12/15 14:20:31;;;;;;;23.05;14.10;;;;;;;;;;5099234;27;92405;-73
2021/12/15 14:22:59;;;;;;;21.95;12.90;;;;;;;;;;5099007;27;93269;-73
2021/12/15 14:25:26;;;;;;;24.88;13.77;;;;;;;;;;5099431;27;93027;-73
2021/12/15 14:27:53;;;;;;;20.30;13.68;;;;;;;;;;5101963;27;92268;-72
2021/12/15 14:30:20;;;;;;;22.70;14.13;;;;;;;;;;5098777;27;93593;-73
2021/12/15 14:32:46;;;;;;;19.17;13.65;;;;;;;;;;5098723;27;92248;-73
2021/12/15 14:35:17;;;;;;;26.40;13.98;;;;;;;;;;5080580;27;94838;-73
2021/12/15 14:37:43;;;;;;;22.80;13.93;;;;;;;;;;5098687;27;92912;-73
2021/12/15 14:40:10;;;;;;;23.58;14.40;;;;;;;;;;5098601;27;92379;-73
2021/12/15 14:42:40;;;;;;;23.00;14.40;;;;;;;;;;5097013;27;94649;-73
2021/12/15 14:45:11;;;;;;;23.90;15.20;;;;;;;;;;5098565;27;93398;-73
2021/12/15 14:47:39;;;;;;;27.63;14.27;;;;;;;;;;5098377;27;92363;-73
2021/12/15 14:50:10;;;;;;;22.48;15.85;;;;;;;;;;5101424;27;93384;-73
2021/12/15 14:52:38;;;;;;;22.70;15.48;;;;;;;;;;5098518;27;92317;-73
2021/12/15 14:55:06;;;;;;;20.48;15.20;;;;;;;;;;5098420;27;93807;-73
2021/12/15 14:57:36;;;;;;;21.95;15.07;;;;;;;;;;5098615;27;93575;-73
2021/12/15 15:00:08;;;;;;;31.15;17.08;;;;;;;;;;5098664;27;91506;-72
2021/12/15 15:02:41;;;;;;;24.25;16.48;;;;;;;;;;5098384;27;92716;-73
2021/12/15 15:05:10;;;;;;;26.17;16.42;;;;;;;;;;5079640;27;94429;-73
2021/12/15 15:07:39;;;;;;;25.52;15.40;;;;;;;;;;5096373;27;94697;-73
2021/12/15 15:10:07;;;;;;;29.17;18.08;;;;;;;;;;5100918;27;96181;-74
2021/12/15 15:12:35;;;;;;;30.15;17.13;;;;;;;;;;5098243;27;92358;-74
2021/12/15 15:15:12;;;;;;;29.10;18.13;;;;;;;;;;5062924;27;94021;-73
2021/12/15 15:17:51;;;;;;;31.90;19.40;;;;;;;;;;5097726;27;93336;-73
2021/12/15 15:20:17;;;;;;;28.73;19.52;;;;;;;;;;5097970;27;93099;-73
2021/12/15 15:22:46;;;;;;;28.15;19.52;;;;;;;;;;5097962;27;93508;-73
2021/12/15 15:25:15;;;;;;;31.98;20.95;;;;;;;;;;5098447;27;92936;-73
2021/12/15 15:27:43;;;;;;;32.90;20.83;;;;;;;;;;5097993;27;92286;-72
2021/12/15 15:30:11;;;;;;;34.28;20.85;;;;;;;;;;5098201;27;93602;-75
2021/12/15 15:32:40;;;;;;;31.75;20.73;;;;;;;;;;5098919;27;95957;-74
2021/12/15 15:35:09;;;;;;;36.22;21.33;;;;;;;;;;5097774;27;95964;-74
2021/12/15 15:37:36;;;;;;;32.75;21.60;;;;;;;;;;5097813;27;93816;-74
2021/12/15 15:40:05;;;;;;;43.00;26.30;;;;;;;;;;5097770;27;92134;-74
2021/12/15 15:42:32;;;;;;;41.25;24.33;;;;;;;;;;5098172;27;93435;-73
2021/12/15 15:44:58;;;;;;;36.97;24.98;;;;;;;;;;5097615;27;93514;-74
2021/12/15 15:47:24;;;;;;;41.17;23.73;;;;;;;;;;5097249;27;92418;-74
2021/12/15 15:49:56;;;;;;;36.00;23.30;;;;;;;;;;5098296;27;93359;-75
2021/12/15 15:52:23;;;;;;;42.47;23.58;;;;;;;;;;5097463;27;93240;-75